createdAt,value
2023-02-04T00:02:25.793Z,86.71
2023-02-04T00:04:52.560Z,86.74
2023-02-04T00:07:19.474Z,86.75
2023-02-04T00:09:47.415Z,86.99
2023-02-04T00:12:14.798Z,86.91
2023-02-04T00:14:41.484Z,87.06
2023-02-04T00:17:10.465Z,87.17
2023-02-04T00:19:37.721Z,87.35
2023-02-04T00:22:05.346Z,87.42
2023-02-04T00:24:32.300Z,87.79
2023-02-04T00:26:59.065Z,87.71
2023-02-04T00:29:25.795Z,87.36
2023-02-04T00:31:53.651Z,87.43
2023-02-04T00:34:20.484Z,87.49
2023-02-04T00:36:47.364Z,87.55
2023-02-04T00:39:14.116Z,87.97
2023-02-04T00:41:43.199Z,88.11
2023-02-04T00:44:09.990Z,88.28
2023-02-04T00:46:36.742Z,88.41
2023-02-04T00:49:03.458Z,88.68
2023-02-04T00:51:30.532Z,88.90
2023-02-04T00:53:57.306Z,88.69
2023-02-04T00:56:24.055Z,88.87
2023-02-04T00:58:50.816Z,89.00
2023-02-04T01:01:17.526Z,88.74
2023-02-04T01:03:44.540Z,89.04
2023-02-04T01:06:12.609Z,88.74
2023-02-04T01:08:42.084Z,88.59
2023-02-04T01:11:09.029Z,88.66
2023-02-04T01:13:35.837Z,88.35
2023-02-04T01:16:02.603Z,88.01
2023-02-04T01:18:29.428Z,87.72
2023-02-04T01:20:56.177Z,87.55
2023-02-04T01:23:23.404Z,87.69
2023-02-04T01:25:50.091Z,87.66
2023-02-04T01:28:17.058Z,87.74
2023-02-04T01:30:44.557Z,87.58
2023-02-04T01:33:11.652Z,87.74
2023-02-04T01:35:38.468Z,87.68
2023-02-04T01:38:05.568Z,87.75
2023-02-04T01:40:32.831Z,87.88
2023-02-04T01:42:59.849Z,87.71
2023-02-04T01:45:26.627Z,87.69
2023-02-04T01:47:53.646Z,87.48
2023-02-04T01:50:20.436Z,87.72
2023-02-04T01:52:47.386Z,87.61
2023-02-04T01:55:17.153Z,87.96
2023-02-04T01:57:44.424Z,88.03
2023-02-04T02:00:15.776Z,88.02
2023-02-04T02:02:44.531Z,87.74
2023-02-04T02:05:13.086Z,87.87
2023-02-04T02:07:39.947Z,88.04
2023-02-04T02:10:07.667Z,87.97
2023-02-04T02:12:34.386Z,87.85
2023-02-04T02:15:01.547Z,88.05
2023-02-04T02:17:28.370Z,87.88
2023-02-04T02:19:57.700Z,87.93
2023-02-04T02:22:28.535Z,88.35
2023-02-04T02:24:55.546Z,88.20
2023-02-04T02:27:22.405Z,88.20
2023-02-04T02:29:50.046Z,88.25
2023-02-04T02:32:17.278Z,88.31
2023-02-04T02:34:45.672Z,88.43
2023-02-04T02:37:13.187Z,88.60
2023-02-04T02:39:41.531Z,88.57
2023-02-04T02:42:08.475Z,88.21
2023-02-04T02:44:35.319Z,88.27
2023-02-04T02:47:02.643Z,88.55
2023-02-04T02:49:32.506Z,88.32
2023-02-04T02:51:59.415Z,88.18
2023-02-04T02:54:28.575Z,88.21
2023-02-04T02:56:56.278Z,88.21
2023-02-04T02:59:23.364Z,88.28
2023-02-04T03:01:52.614Z,88.41
2023-02-04T03:04:20.618Z,88.49
2023-02-04T03:06:47.538Z,88.42
2023-02-04T03:09:14.420Z,88.55
2023-02-04T03:11:41.378Z,88.18
2023-02-04T03:14:08.423Z,87.96
2023-02-04T03:16:37.232Z,87.74
2023-02-04T03:19:06.512Z,87.86
2023-02-04T03:21:33.780Z,88.28
2023-02-04T03:24:00.563Z,88.06
2023-02-04T03:26:27.831Z,88.21
2023-02-04T03:28:54.937Z,87.67
2023-02-04T03:31:21.795Z,87.75
2023-02-04T03:33:48.826Z,87.93
2023-02-04T03:36:15.628Z,87.82
2023-02-04T03:38:42.819Z,87.14
2023-02-04T03:41:09.942Z,87.22
2023-02-04T03:43:36.919Z,87.33
2023-02-04T03:46:04.015Z,87.02
2023-02-04T03:48:30.985Z,88.03
2023-02-04T03:50:57.735Z,87.91
2023-02-04T03:53:24.696Z,87.53
2023-02-04T03:55:51.745Z,87.80
2023-02-04T03:58:20.955Z,87.75
2023-02-04T04:00:47.655Z,87.82
2023-02-04T04:03:14.463Z,88.26
2023-02-04T04:05:41.200Z,88.60
2023-02-04T04:08:08.308Z,88.49
2023-02-04T04:10:35.310Z,88.41
2023-02-04T04:13:02.399Z,88.71
2023-02-04T04:15:29.561Z,88.78
2023-02-04T04:17:56.416Z,88.77
2023-02-04T04:20:25.618Z,88.76
2023-02-04T04:22:52.712Z,88.79
2023-02-04T04:25:19.719Z,88.70
2023-02-04T04:27:46.703Z,88.93
2023-02-04T04:30:13.581Z,88.82
2023-02-04T04:32:42.683Z,88.84
2023-02-04T04:35:09.419Z,88.70
2023-02-04T04:37:36.718Z,88.64
2023-02-04T04:40:03.783Z,88.80
2023-02-04T04:42:30.619Z,88.89
2023-02-04T04:44:57.600Z,89.03
2023-02-04T04:47:24.287Z,88.84
2023-02-04T04:49:51.029Z,88.85
2023-02-04T04:52:17.696Z,88.83
2023-02-04T04:54:44.482Z,88.90
2023-02-04T04:57:11.231Z,89.11
2023-02-04T04:59:40.387Z,89.24
2023-02-04T05:02:07.062Z,88.91
2023-02-04T05:04:33.855Z,88.93
2023-02-04T05:07:00.625Z,89.19
2023-02-04T05:09:27.774Z,88.95
2023-02-04T05:11:54.792Z,89.63
2023-02-04T05:14:21.997Z,90.17
2023-02-04T05:16:48.944Z,89.58
2023-02-04T05:19:16.163Z,89.36
2023-02-04T05:21:42.943Z,89.06
2023-02-04T05:24:09.719Z,88.86
2023-02-04T05:26:36.494Z,89.31
2023-02-04T05:29:03.306Z,89.30
2023-02-04T05:31:30.104Z,88.73
2023-02-04T05:33:56.946Z,88.63
2023-02-04T05:36:23.672Z,88.53
2023-02-04T05:38:50.473Z,88.46
2023-02-04T05:41:17.270Z,88.64
2023-02-04T05:43:43.988Z,88.46
2023-02-04T05:46:11.424Z,88.35
2023-02-04T05:48:40.142Z,88.42
2023-02-04T05:51:06.888Z,88.24
2023-02-04T05:53:34.095Z,88.18
2023-02-04T05:56:00.802Z,88.40
2023-02-04T05:58:33.812Z,88.17
2023-02-04T06:01:02.414Z,88.08
2023-02-04T06:03:29.714Z,88.17
2023-02-04T06:05:56.956Z,88.31
2023-02-04T06:08:25.915Z,88.62
2023-02-04T06:10:52.665Z,88.55
2023-02-04T06:13:19.420Z,88.61
2023-02-04T06:15:46.137Z,88.40
2023-02-04T06:18:14.080Z,87.98
2023-02-04T06:20:40.836Z,88.07
2023-02-04T06:23:07.544Z,88.39
2023-02-04T06:25:34.280Z,88.21
2023-02-04T06:28:03.729Z,87.91
2023-02-04T06:30:31.209Z,87.83
2023-02-04T06:32:58.365Z,87.90
2023-02-04T06:35:25.060Z,87.78
2023-02-04T06:37:51.916Z,88.08
2023-02-04T06:40:19.034Z,87.96
2023-02-04T06:42:45.971Z,88.08
2023-02-04T06:45:12.920Z,88.03
2023-02-04T06:47:39.964Z,87.84
2023-02-04T06:50:07.373Z,88.11
2023-02-04T06:52:34.174Z,88.10
2023-02-04T06:55:00.966Z,88.19
2023-02-04T06:57:28.105Z,87.81
2023-02-04T06:59:54.927Z,87.48
2023-02-04T07:02:21.700Z,87.82
2023-02-04T07:04:49.549Z,87.96
2023-02-04T07:07:16.361Z,88.13
2023-02-04T07:09:43.091Z,87.91
2023-02-04T07:12:12.491Z,87.56
2023-02-04T07:14:39.631Z,87.96
2023-02-04T07:17:06.473Z,88.15
2023-02-04T07:19:33.895Z,88.42
2023-02-04T07:22:01.096Z,88.25
2023-02-04T07:24:27.878Z,87.97
2023-02-04T07:26:54.631Z,87.98
2023-02-04T07:29:25.697Z,88.29
2023-02-04T07:31:55.149Z,88.37
2023-02-04T07:34:22.179Z,88.17
2023-02-04T07:36:49.045Z,88.15
2023-02-04T07:39:16.113Z,88.26
2023-02-04T07:41:43.041Z,88.15
2023-02-04T07:44:09.779Z,87.88
2023-02-04T07:46:36.489Z,88.38
2023-02-04T07:49:03.662Z,88.46
2023-02-04T07:51:31.026Z,88.22
2023-02-04T07:53:58.175Z,88.31
2023-02-04T07:56:25.003Z,88.01
2023-02-04T07:58:52.294Z,88.09
2023-02-04T08:01:19.089Z,87.83
2023-02-04T08:03:45.915Z,87.97
2023-02-04T08:06:12.928Z,87.46
2023-02-04T08:08:39.772Z,87.51
2023-02-04T08:11:07.007Z,87.50
2023-02-04T08:13:34.045Z,87.78
2023-02-04T08:16:01.161Z,87.97
2023-02-04T08:18:28.024Z,87.40
2023-02-04T08:20:55.240Z,87.01
2023-02-04T08:23:22.125Z,87.07
2023-02-04T08:25:49.200Z,87.16
2023-02-04T08:28:16.195Z,87.39
2023-02-04T08:30:43.091Z,87.25
2023-02-04T08:33:09.944Z,86.81
2023-02-04T08:35:36.935Z,86.59
2023-02-04T08:38:04.071Z,86.54
2023-02-04T08:40:31.662Z,86.08
2023-02-04T08:42:58.750Z,86.34
2023-02-04T08:45:25.660Z,85.90
2023-02-04T08:47:52.430Z,85.71
2023-02-04T08:50:19.240Z,85.47
2023-02-04T08:52:46.254Z,85.36
2023-02-04T08:55:13.077Z,85.90
2023-02-04T08:57:42.080Z,85.90
2023-02-04T09:00:10.577Z,85.64
2023-02-04T09:02:37.368Z,85.29
2023-02-04T09:05:04.697Z,85.04
2023-02-04T09:07:31.484Z,84.88
2023-02-04T09:09:58.204Z,85.19
2023-02-04T09:12:25.104Z,85.31
2023-02-04T09:14:51.848Z,85.05
2023-02-04T09:17:19.366Z,84.37
2023-02-04T09:19:46.061Z,84.41
2023-02-04T09:22:13.512Z,84.66
2023-02-04T09:24:40.283Z,84.60
2023-02-04T09:27:07.229Z,84.64
2023-02-04T09:29:37.586Z,84.45
2023-02-04T09:32:04.772Z,83.97
2023-02-04T09:34:31.565Z,83.95
2023-02-04T09:36:58.375Z,83.67
2023-02-04T09:39:25.351Z,83.99
2023-02-04T09:41:54.620Z,83.67
2023-02-04T09:44:23.866Z,82.99
2023-02-04T09:46:52.649Z,82.91
2023-02-04T09:49:19.806Z,82.89
2023-02-04T09:51:47.570Z,83.26
2023-02-04T09:54:17.623Z,82.94
2023-02-04T09:56:44.885Z,82.57
2023-02-04T09:59:13.328Z,82.41
2023-02-04T10:01:40.445Z,82.13
2023-02-04T10:04:10.208Z,82.77
2023-02-04T10:06:37.659Z,82.32
2023-02-04T10:09:04.457Z,81.21
2023-02-04T10:11:32.974Z,80.69
2023-02-04T10:14:00.000Z,80.59
2023-02-04T10:16:30.661Z,80.03
2023-02-04T10:19:01.022Z,80.50
2023-02-04T10:21:29.611Z,80.51
2023-02-04T10:23:57.931Z,79.58
2023-02-04T10:26:26.857Z,78.99
2023-02-04T10:28:56.833Z,78.65
2023-02-04T10:31:26.775Z,78.59
2023-02-04T10:34:10.396Z,78.20
2023-02-04T10:36:37.315Z,77.80
2023-02-04T10:39:05.800Z,77.47
2023-02-04T10:41:33.752Z,76.76
2023-02-04T10:44:04.404Z,76.73
2023-02-04T10:46:32.198Z,76.79
2023-02-04T10:48:59.564Z,76.36
2023-02-04T10:51:26.581Z,75.93
2023-02-04T10:53:56.483Z,75.39
2023-02-04T10:56:23.701Z,75.02
2023-02-04T10:58:50.601Z,74.61
2023-02-04T11:01:17.819Z,74.67
2023-02-04T11:03:48.004Z,74.50
2023-02-04T11:06:20.758Z,74.35
2023-02-04T11:08:48.536Z,74.55
2023-02-04T11:11:18.412Z,74.28
2023-02-04T11:13:48.676Z,74.28
2023-02-04T11:16:18.746Z,74.21
2023-02-04T11:18:46.602Z,72.14
2023-02-04T11:21:18.715Z,70.52
2023-02-04T11:23:46.077Z,70.54
2023-02-04T11:26:14.810Z,70.60
2023-02-04T11:28:44.806Z,71.89
2023-02-04T11:31:14.759Z,70.82
2023-02-04T11:33:42.990Z,70.60
2023-02-04T11:36:12.239Z,70.58
2023-02-04T11:38:40.169Z,71.25
2023-02-04T11:41:15.599Z,72.79
2023-02-04T11:43:42.492Z,73.60
2023-02-04T11:46:12.373Z,72.95
2023-02-04T11:48:39.705Z,73.39
2023-02-04T11:51:09.558Z,77.66
2023-02-04T11:53:36.423Z,77.35
2023-02-04T11:56:04.058Z,76.83
2023-02-04T11:58:31.693Z,73.87
2023-02-04T12:00:58.807Z,72.28
2023-02-04T12:03:30.922Z,71.67
2023-02-04T12:05:58.686Z,71.89
2023-02-04T12:08:30.679Z,71.93
2023-02-04T12:11:01.037Z,71.51
2023-02-04T12:13:30.735Z,77.37
2023-02-04T12:16:02.645Z,75.37
2023-02-04T12:18:30.502Z,73.84
2023-02-04T12:20:57.811Z,73.11
2023-02-04T12:23:25.250Z,72.91
2023-02-04T12:25:52.188Z,72.42
2023-02-04T12:28:19.291Z,73.08
2023-02-04T12:30:46.207Z,73.64
2023-02-04T12:33:14.973Z,73.40
2023-02-04T12:35:42.500Z,73.51
2023-02-04T12:38:10.490Z,75.83
2023-02-04T12:40:37.571Z,75.56
2023-02-04T12:43:04.536Z,75.71
2023-02-04T12:45:31.939Z,75.60
2023-02-04T12:47:59.020Z,75.28
2023-02-04T12:50:26.963Z,75.04
2023-02-04T12:52:55.396Z,74.61
2023-02-04T12:55:23.472Z,74.31
2023-02-04T12:57:50.584Z,73.78
2023-02-04T13:00:18.459Z,74.16
2023-02-04T13:02:45.459Z,73.96
2023-02-04T13:05:13.155Z,73.09
2023-02-04T13:07:41.165Z,73.35
2023-02-04T13:10:08.855Z,72.89
2023-02-04T13:12:35.890Z,72.31
2023-02-04T13:15:02.815Z,72.21
2023-02-04T13:17:29.648Z,72.29
2023-02-04T13:19:56.632Z,73.45
2023-02-04T13:22:23.633Z,74.27
2023-02-04T13:24:50.555Z,74.04
2023-02-04T13:27:17.655Z,73.27
2023-02-04T13:29:45.033Z,72.77
2023-02-04T13:32:11.798Z,72.53
2023-02-04T13:34:38.678Z,72.44
2023-02-04T13:37:05.665Z,73.24
2023-02-04T13:39:32.761Z,72.68
2023-02-04T13:41:59.552Z,72.85
2023-02-04T13:44:26.451Z,72.64
2023-02-04T13:46:53.495Z,72.40
2023-02-04T13:49:21.864Z,71.99
2023-02-04T13:51:49.100Z,71.47
2023-02-04T13:54:16.280Z,70.67
2023-02-04T13:56:43.145Z,70.41
2023-02-04T13:59:09.990Z,70.44
2023-02-04T14:01:37.437Z,70.54
2023-02-04T14:04:04.366Z,70.26
2023-02-04T14:06:33.979Z,69.85
2023-02-04T14:09:04.993Z,69.63
2023-02-04T14:11:31.817Z,70.66
2023-02-04T14:14:00.798Z,70.73
2023-02-04T14:16:27.755Z,70.16
2023-02-04T14:18:54.663Z,69.54
2023-02-04T14:21:21.879Z,69.39
2023-02-04T14:23:48.706Z,69.40
2023-02-04T14:26:15.837Z,69.50
2023-02-04T14:28:42.768Z,69.85
2023-02-04T14:31:09.806Z,69.60
2023-02-04T14:33:36.906Z,70.04
2023-02-04T14:36:06.701Z,70.35
2023-02-04T14:38:34.640Z,70.04
2023-02-04T14:41:01.502Z,69.77
2023-02-04T14:43:28.350Z,68.93
2023-02-04T14:45:55.258Z,67.82
2023-02-04T14:48:22.433Z,66.84
2023-02-04T14:50:49.333Z,66.07
2023-02-04T14:53:16.278Z,65.60
2023-02-04T14:55:43.139Z,65.46
2023-02-04T14:58:10.133Z,65.20
2023-02-04T15:00:37.003Z,65.59
2023-02-04T15:03:04.685Z,65.28
2023-02-04T15:05:31.485Z,66.11
2023-02-04T15:07:58.340Z,65.51
2023-02-04T15:10:29.160Z,66.44
2023-02-04T15:12:56.700Z,65.24
2023-02-04T15:15:26.741Z,66.15
2023-02-04T15:17:53.480Z,66.22
2023-02-04T15:20:20.454Z,66.12
2023-02-04T15:22:51.957Z,65.47
2023-02-04T15:25:18.903Z,64.38
2023-02-04T15:27:46.491Z,64.80
2023-02-04T15:30:13.361Z,63.43
2023-02-04T15:32:42.475Z,63.97
2023-02-04T15:35:09.856Z,63.54
2023-02-04T15:37:37.008Z,63.56
2023-02-04T15:40:04.353Z,65.10
2023-02-04T15:42:33.794Z,64.69
2023-02-04T15:45:00.767Z,63.90
2023-02-04T15:47:27.614Z,64.52
2023-02-04T15:49:54.566Z,64.61
2023-02-04T15:52:25.262Z,64.66
2023-02-04T15:54:52.343Z,64.18
2023-02-04T15:57:19.181Z,64.66
2023-02-04T15:59:46.259Z,64.40
2023-02-04T16:02:14.726Z,64.36
2023-02-04T16:04:45.386Z,64.26
2023-02-04T16:07:12.335Z,64.95
2023-02-04T16:09:39.345Z,64.45
2023-02-04T16:12:06.455Z,65.21
2023-02-04T16:14:33.811Z,64.82
2023-02-04T16:17:02.336Z,65.68
2023-02-04T16:19:32.702Z,65.80
2023-02-04T16:21:59.702Z,66.57
2023-02-04T16:24:26.722Z,66.12
2023-02-04T16:26:53.594Z,65.94
2023-02-04T16:29:20.797Z,66.22
2023-02-04T16:31:47.794Z,65.95
2023-02-04T16:34:14.743Z,65.53
2023-02-04T16:36:42.072Z,66.73
2023-02-04T16:39:09.077Z,66.93
2023-02-04T16:41:35.825Z,67.74
2023-02-04T16:44:02.712Z,67.69
2023-02-04T16:46:32.299Z,67.65
2023-02-04T16:48:59.195Z,67.21
2023-02-04T16:51:26.415Z,66.74
2023-02-04T16:53:53.884Z,66.45
2023-02-04T16:56:20.817Z,66.60
2023-02-04T16:58:49.804Z,66.86
2023-02-04T17:01:17.582Z,67.16
2023-02-04T17:03:44.626Z,66.80
2023-02-04T17:06:14.390Z,66.77
2023-02-04T17:08:41.641Z,66.91
2023-02-04T17:11:11.737Z,67.17
2023-02-04T17:13:38.620Z,67.34
2023-02-04T17:16:05.861Z,67.13
2023-02-04T17:18:32.884Z,67.63
2023-02-04T17:20:59.737Z,67.90
2023-02-04T17:23:27.178Z,68.24
2023-02-04T17:25:54.025Z,67.88
2023-02-04T17:28:21.013Z,67.96
2023-02-04T17:30:47.847Z,67.80
2023-02-04T17:33:14.641Z,68.36
2023-02-04T17:35:41.707Z,68.60
2023-02-04T17:38:10.717Z,67.85
2023-02-04T17:40:37.506Z,68.29
2023-02-04T17:43:05.238Z,67.96
2023-02-04T17:45:32.412Z,67.88
2023-02-04T17:47:59.888Z,68.52
2023-02-04T17:50:26.780Z,68.14
2023-02-04T17:52:53.934Z,67.98
2023-02-04T17:55:23.669Z,68.43
2023-02-04T17:57:50.967Z,68.76
2023-02-04T18:00:19.485Z,68.47
2023-02-04T18:02:47.198Z,68.31
2023-02-04T18:05:16.360Z,67.98
2023-02-04T18:07:46.520Z,68.24
2023-02-04T18:10:21.800Z,68.74
2023-02-04T18:12:49.123Z,68.59
2023-02-04T18:15:23.980Z,68.56
2023-02-04T18:17:50.845Z,68.61
2023-02-04T18:20:18.440Z,69.60
2023-02-04T18:22:45.645Z,69.34
2023-02-04T18:25:16.438Z,69.03
2023-02-04T18:27:43.447Z,68.92
2023-02-04T18:30:17.078Z,70.19
2023-02-04T18:32:43.989Z,69.62
2023-02-04T18:35:14.090Z,69.02
2023-02-04T18:37:46.766Z,69.05
2023-02-04T18:40:14.043Z,69.26
2023-02-04T18:42:42.073Z,70.19
2023-02-04T18:45:11.913Z,69.84
2023-02-04T18:47:40.893Z,69.72
2023-02-04T18:50:10.957Z,70.27
2023-02-04T18:52:38.867Z,70.60
2023-02-04T18:55:17.395Z,70.35
2023-02-04T18:57:44.867Z,70.15
2023-02-04T19:00:13.775Z,70.64
2023-02-04T19:02:43.667Z,70.69
2023-02-04T19:05:14.672Z,70.34
2023-02-04T19:07:44.493Z,70.71
2023-02-04T19:10:25.156Z,71.42
2023-02-04T19:12:53.793Z,71.14
2023-02-04T19:15:34.367Z,71.11
2023-02-04T19:18:07.800Z,71.58
2023-02-04T19:20:34.645Z,71.41
2023-02-04T19:23:01.702Z,71.21
2023-02-04T19:25:31.175Z,71.36
2023-02-04T19:27:59.921Z,71.42
2023-02-04T19:30:27.230Z,71.75
2023-02-04T19:32:57.281Z,71.78
2023-02-04T19:35:26.406Z,71.05
2023-02-04T19:37:55.731Z,71.49
2023-02-04T19:40:25.402Z,71.71
2023-02-04T19:42:55.969Z,71.22
2023-02-04T19:45:25.526Z,71.60
2023-02-04T19:47:55.115Z,71.75
2023-02-04T19:50:23.340Z,71.77
2023-02-04T19:52:52.673Z,71.79
2023-02-04T19:55:22.738Z,72.14
2023-02-04T19:57:52.606Z,72.94
2023-02-04T20:00:22.558Z,73.03
2023-02-04T20:02:49.518Z,72.87
2023-02-04T20:05:21.909Z,72.94
2023-02-04T20:07:48.913Z,73.23
2023-02-04T20:10:18.803Z,73.56
2023-02-04T20:12:45.639Z,73.38
2023-02-04T20:15:18.077Z,73.10
2023-02-04T20:17:46.802Z,73.73
2023-02-04T20:20:13.962Z,74.05
2023-02-04T20:22:46.165Z,73.40
2023-02-04T20:25:16.287Z,73.57
2023-02-04T20:27:43.659Z,74.35
2023-02-04T20:30:12.062Z,74.32
2023-02-04T20:32:41.386Z,74.17
2023-02-04T20:35:08.511Z,74.13
2023-02-04T20:37:35.813Z,73.94
2023-02-04T20:40:17.790Z,74.47
2023-02-04T20:42:46.545Z,74.20
2023-02-04T20:45:16.361Z,74.13
2023-02-04T20:47:43.110Z,75.07
2023-02-04T20:50:17.405Z,74.97
2023-02-04T20:52:51.895Z,74.74
2023-02-04T20:55:20.136Z,74.53
2023-02-04T20:57:46.922Z,74.57
2023-02-04T21:00:15.894Z,74.87
2023-02-04T21:02:42.913Z,75.18
2023-02-04T21:05:12.842Z,74.47
2023-02-04T21:07:40.078Z,75.05
2023-02-04T21:10:07.846Z,75.33
2023-02-04T21:12:35.541Z,75.17
2023-02-04T21:15:02.368Z,75.19
2023-02-04T21:17:29.152Z,75.36
2023-02-04T21:19:55.926Z,76.29
2023-02-04T21:22:22.663Z,75.86
2023-02-04T21:24:49.517Z,75.86
2023-02-04T21:27:22.270Z,75.60
2023-02-04T21:29:49.365Z,76.13
2023-02-04T21:32:16.235Z,76.10
2023-02-04T21:34:43.145Z,76.04
2023-02-04T21:37:10.115Z,76.22
2023-02-04T21:39:36.970Z,76.37
2023-02-04T21:42:07.170Z,76.53
2023-02-04T21:44:34.200Z,76.28
2023-02-04T21:47:01.106Z,76.54
2023-02-04T21:49:28.178Z,76.96
2023-02-04T21:51:55.362Z,77.55
2023-02-04T21:54:22.457Z,77.54
2023-02-04T21:56:49.315Z,77.24
2023-02-04T21:59:19.187Z,77.70
2023-02-04T22:01:46.073Z,77.79
2023-02-04T22:04:12.866Z,77.68
2023-02-04T22:06:39.773Z,77.47
2023-02-04T22:09:07.656Z,77.68
2023-02-04T22:11:36.687Z,78.20
2023-02-04T22:14:03.533Z,77.64
2023-02-04T22:16:30.440Z,77.26
2023-02-04T22:18:57.216Z,77.08
2023-02-04T22:21:23.977Z,78.07
2023-02-04T22:23:50.827Z,77.92
2023-02-04T22:26:17.850Z,77.71
2023-02-04T22:28:44.684Z,77.57
2023-02-04T22:31:12.772Z,79.28
2023-02-04T22:33:39.652Z,79.00
2023-02-04T22:36:06.676Z,78.27
2023-02-04T22:38:33.681Z,78.29
2023-02-04T22:41:00.476Z,78.95
2023-02-04T22:43:27.222Z,78.36
2023-02-04T22:45:53.968Z,78.11
2023-02-04T22:48:20.713Z,78.31
2023-02-04T22:50:47.539Z,77.91
2023-02-04T22:53:14.492Z,78.50
2023-02-04T22:55:41.209Z,78.57
2023-02-04T22:58:07.973Z,78.38
2023-02-04T23:00:34.747Z,78.12
2023-02-04T23:03:01.686Z,78.60
2023-02-04T23:05:28.475Z,78.92
2023-02-04T23:07:55.289Z,78.85
2023-02-04T23:10:22.402Z,78.72
2023-02-04T23:12:49.230Z,79.34
2023-02-04T23:15:16.108Z,79.91
2023-02-04T23:17:43.004Z,79.70
2023-02-04T23:20:10.162Z,79.14
2023-02-04T23:22:37.314Z,79.12
2023-02-04T23:25:06.382Z,80.24
2023-02-04T23:27:33.765Z,79.79
2023-02-04T23:30:00.749Z,80.00
2023-02-04T23:32:30.055Z,80.89
2023-02-04T23:34:56.742Z,80.63
2023-02-04T23:37:23.508Z,80.04
2023-02-04T23:39:55.172Z,79.56
2023-02-04T23:42:22.058Z,79.44
2023-02-04T23:44:48.860Z,79.62
2023-02-04T23:47:15.982Z,79.64
2023-02-04T23:49:42.998Z,79.32
2023-02-04T23:52:09.768Z,79.50
2023-02-04T23:54:37.069Z,79.68
2023-02-04T23:57:04.172Z,79.55
2023-02-04T23:59:31.451Z,79.57
